Pires Coelho — CUPM6 — position and weather

sailwx.info

Track history (hours):
 
Tides and Currents Weather Stations Pressure Air Temp Water Temp Dewpoint Dewpoint Depression Visibility Wind Speed Wind Dir Waves Ship Positions

Pires Coelho

Last reported at 2014-Sep-09 22:13 UTC. Time now 2014-Sep-17 05:37 UTC.
Position N 37°08' W 008°32'.

Length 27 m.

Type: Ship. MMSI: 263236000.

Date/timePositionNaut miles runAvg speedWind from/ knotsBaromVisibWave heightAir tempDewpointWater temp
2014-Sep-09 22:13N 37°08' W 008°32'0 0.0
2014-Sep-09 21:25N 37°08' W 008°32'0 0.0
2014-Sep-09 20:33N 37°08' W 008°32'2 2.4
2014-Sep-09 19:33N 37°06' W 008°30'1010.2
2014-Sep-09 18:33N 37°00' W 008°20'1010.0
2014-Sep-09 17:33N 36°55' W 008°09'5 4.9
2014-Sep-09 16:32N 36°52' W 008°05'3 2.6
2014-Sep-09 15:34N 36°51' W 008°01'3 3.0
2014-Sep-09 14:32N 36°52' W 007°58'9 1.8
2014-Sep-09 09:34N 36°49' W 008°08'3 3.0
2014-Sep-09 08:33N 36°50' W 008°05'3 3.0
2014-Sep-09 07:33N 36°51' W 008°01'3 3.0
2014-Sep-09 06:24N 36°52' W 007°57'2 0.8
2014-Sep-09 03:16N 36°52' W 008°00'2 3.1
2014-Sep-09 02:31N 36°52' W 008°03'7 3.0
2014-Sep-09 00:12N 36°50' W 008°12'1 0.9
2014-Sep-08 23:33N 36°50' W 008°11'3 2.9
2014-Sep-08 22:32N 36°51' W 008°07'3 2.8
2014-Sep-08 21:33N 36°52' W 008°04'3 3.0
2014-Sep-08 20:34N 36°52' W 008°00'1 1.2
2014-Sep-08 19:31N 36°51' W 007°59'3 2.9
2014-Sep-08 18:20N 36°51' W 008°03'3 2.5
2014-Sep-08 17:14N 36°50' W 008°06'1 2.0
2014-Sep-08 16:31N 36°51' W 008°05'3 2.9
2014-Sep-08 15:33N 36°51' W 008°01'3 3.1
2014-Sep-08 14:27N 36°52' W 007°57'7 1.4
2014-Sep-08 09:32N 36°53' W 008°06'3 2.7
2014-Sep-08 08:21N 36°51' W 008°03'3 3.1
2014-Sep-08 07:30N 36°51' W 007°60'7 2.3
2014-Sep-08 04:14N 36°56' W 008°07'7 9.6
2014-Sep-08 03:33N 36°59' W 008°14'10 9.7
2014-Sep-08 02:33N 37°03' W 008°25'7 6.1
2014-Sep-08 01:25N 37°08' W 008°32'0 0.0
2014-Sep-08 00:25N 37°08' W 008°32'0 0.0
2014-Sep-07 23:33N 37°08' W 008°32'0 0.0
2014-Sep-07 21:33N 37°08' W 008°32'0 0.0
2014-Sep-07 20:33N 37°08' W 008°32'0 0.0
2014-Sep-07 19:33N 37°08' W 008°32'9 8.9
2014-Sep-07 18:33N 36°59' W 008°31'8 7.6
2014-Sep-07 17:34N 36°52' W 008°31'2 2.5
2014-Sep-07 16:33N 36°49' W 008°31'3 3.0
2014-Sep-07 15:33N 36°49' W 008°27'1 0.7
2014-Sep-07 13:34N 36°49' W 008°29'1 1.1
2014-Sep-07 12:34N 36°49' W 008°30'3 2.9
2014-Sep-07 11:33N 36°49' W 008°27'3 2.9
2014-Sep-07 10:34N 36°49' W 008°23'2 1.8
2014-Sep-07 09:33N 36°50' W 008°21'3 3.0
2014-Sep-07 08:32N 36°49' W 008°17'3 3.0
2014-Sep-07 07:33N 36°49' W 008°14'3 2.9
2014-Sep-07 06:33N 36°49' W 008°10'5 1.9
2014-Sep-07 04:04N 36°50' W 008°15'1 2.8
2014-Sep-07 03:33N 36°50' W 008°17'0 0.4
2014-Sep-07 02:31N 36°50' W 008°17'2 0.9
2014-Sep-07 00:33N 36°51' W 008°19'3 2.9
2014-Sep-06 23:33N 36°51' W 008°22'3 2.9
2014-Sep-06 22:33N 36°52' W 008°26'3 2.9
2014-Sep-06 21:33N 36°53' W 008°29'9 9.1
2014-Sep-06 20:33N 36°52' W 008°41'6 0.3
2014-Sep-05 20:18N 36°48' W 008°46'5 2.6
2014-Sep-05 18:22N 36°52' W 008°44'2 2.7
2014-Sep-05 17:33N 36°51' W 008°43'3 2.9
2014-Sep-05 16:32N 36°50' W 008°39'3 3.0
2014-Sep-05 15:33N 36°49' W 008°36'2 2.2
2014-Sep-05 14:31N 36°51' W 008°34'3 3.1
2014-Sep-05 13:33N 36°52' W 008°30'3 2.9
2014-Sep-05 12:33N 36°49' W 008°32'3 2.7
2014-Sep-05 11:31N 36°50' W 008°28'3 3.0
2014-Sep-05 10:34N 36°50' W 008°25'1 1.1
2014-Sep-05 09:33N 36°50' W 008°23'3 2.9
2014-Sep-05 08:33N 36°49' W 008°20'3 3.0
2014-Sep-05 07:30N 36°49' W 008°16'3 3.1
2014-Sep-05 06:33N 36°49' W 008°12'3 2.7
2014-Sep-05 05:22N 36°49' W 008°08'8 0.8
2014-Sep-04 19:16N 36°52' W 007°58'3 3.0
2014-Sep-04 18:08N 36°51' W 008°02'2 2.7
2014-Sep-04 17:18N 36°52' W 008°05'0 0.4
2014-Sep-04 16:33N 36°52' W 008°05'2 2.5
2014-Sep-04 15:34N 36°51' W 008°02'3 3.0
2014-Sep-04 14:33N 36°52' W 007°58'2 1.7
2014-Sep-04 13:30N 36°52' W 007°56'6 3.0
2014-Sep-04 11:33N 36°53' W 008°03'4 3.1
2014-Sep-04 10:23N 36°53' W 008°08'2 2.6
2014-Sep-04 09:33N 36°53' W 008°05'3 3.1
2014-Sep-04 08:33N 36°53' W 008°01'3 3.1
2014-Sep-04 07:33N 36°52' W 007°58'7 1.8
2014-Sep-04 03:33N 36°46' W 007°54'4 1.7
2014-Sep-04 01:10N 36°45' W 007°59'2 3.0
2014-Sep-04 00:33N 36°45' W 007°57'3 2.9
2014-Sep-03 23:24N 36°46' W 007°53'5 0.5
2014-Sep-03 13:17N 36°52' W 007°54'8 2.5
2014-Sep-03 10:05N 36°52' W 008°04'2 3.3
2014-Sep-03 09:33N 36°53' W 008°05'2 2.2
2014-Sep-03 08:32N 36°51' W 008°04'3 2.9
2014-Sep-03 07:32N 36°51' W 008°00'3 3.0
2014-Sep-03 06:34N 36°52' W 007°57'7 3.1
2014-Sep-03 04:19N 36°56' W 008°04'7 9.7
2014-Sep-03 03:33N 36°59' W 008°12'10 9.7
2014-Sep-03 02:33N 37°03' W 008°23'8 7.8
2014-Sep-03 01:32N 37°08' W 008°32'0 0.0
2014-Sep-03 00:31N 37°08' W 008°32'0 0.0
2014-Sep-02 22:10N 37°08' W 008°32'0 0.0
2014-Sep-02 21:30N 37°08' W 008°32'0 0.0
2014-Sep-02 20:33N 37°08' W 008°32'8 8.1
2014-Sep-02 19:34N 37°00' W 008°31'9 8.5
2014-Sep-02 18:31N 36°51' W 008°31'2 2.0
2014-Sep-02 17:34N 36°49' W 008°30'3 2.9
2014-Sep-02 16:32N 36°50' W 008°26'3 2.9
2014-Sep-02 15:28N 36°49' W 008°23'1 0.9
2014-Sep-02 14:33N 36°49' W 008°22'3 3.1
2014-Sep-02 13:34N 36°49' W 008°18'3 3.0
2014-Sep-02 12:33N 36°49' W 008°14'3 2.9
2014-Sep-02 11:33N 36°49' W 008°10'3 2.4
2014-Sep-02 10:29N 36°50' W 008°07'3 0.1
2014-Sep-01 14:27N 36°52' W 008°05'2 2.2
2014-Sep-01 13:25N 36°51' W 008°03'3 3.0
2014-Sep-01 12:30N 36°51' W 007°60'3 2.8
2014-Sep-01 11:20N 36°52' W 007°56'3 0.7
2014-Sep-01 07:24N 36°51' W 007°59'3 0.2
2014-Aug-31 18:32N 36°51' W 007°56'3 2.2
2014-Aug-31 17:20N 36°50' W 007°59'2 3.0
2014-Aug-31 16:31N 36°50' W 008°02'3 2.2
2014-Aug-31 15:20N 36°51' W 007°59'2 3.0
2014-Aug-31 14:33N 36°52' W 007°56'3 2.0
2014-Aug-31 13:16N 36°52' W 007°53'3 2.1
2014-Aug-31 12:05N 36°52' W 007°56'2 2.9
2014-Aug-31 11:33N 36°52' W 007°58'3 3.0
2014-Aug-31 10:33N 36°51' W 008°01'2 1.2
2014-Aug-31 08:30N 36°51' W 008°04'3 2.7
2014-Aug-31 07:33N 36°51' W 008°01'3 3.1
2014-Aug-31 06:33N 36°52' W 007°58'8 2.1
2014-Aug-31 02:34N 36°44' W 007°53'3 2.9
2014-Aug-31 01:34N 36°44' W 007°57'3 3.3
2014-Aug-31 00:33N 36°45' W 008°01'3 3.0
2014-Aug-30 23:33N 36°46' W 007°57'3 2.9
2014-Aug-30 22:33N 36°47' W 007°54'  
Track history (hours):
 
Tides and Currents Weather Stations Pressure Air Temp Water Temp Dewpoint Dewpoint Depression Visibility Wind Speed Wind Dir Waves Ship Positions

Pires Coelho

Last reported at 2014-Sep-09 22:13 UTC. Time now 2014-Sep-17 05:37 UTC.
Position N 37°08' W 008°32'.

Length 27 m.

Type: Ship. MMSI: 263236000.

Date/timePositionNaut miles runAvg speedWind from/ knotsBaromVisibWave heightAir tempDewpointWater temp
2014-Sep-09 22:13N 37°08' W 008°32'0 0.0
2014-Sep-09 21:25N 37°08' W 008°32'0 0.0
2014-Sep-09 20:33N 37°08' W 008°32'2 2.4
2014-Sep-09 19:33N 37°06' W 008°30'1010.2
2014-Sep-09 18:33N 37°00' W 008°20'1010.0
2014-Sep-09 17:33N 36°55' W 008°09'5 4.9
2014-Sep-09 16:32N 36°52' W 008°05'3 2.6
2014-Sep-09 15:34N 36°51' W 008°01'3 3.0
2014-Sep-09 14:32N 36°52' W 007°58'9 1.8
2014-Sep-09 09:34N 36°49' W 008°08'3 3.0
2014-Sep-09 08:33N 36°50' W 008°05'3 3.0
2014-Sep-09 07:33N 36°51' W 008°01'3 3.0
2014-Sep-09 06:24N 36°52' W 007°57'2 0.8
2014-Sep-09 03:16N 36°52' W 008°00'2 3.1
2014-Sep-09 02:31N 36°52' W 008°03'7 3.0
2014-Sep-09 00:12N 36°50' W 008°12'1 0.9
2014-Sep-08 23:33N 36°50' W 008°11'3 2.9
2014-Sep-08 22:32N 36°51' W 008°07'3 2.8
2014-Sep-08 21:33N 36°52' W 008°04'3 3.0
2014-Sep-08 20:34N 36°52' W 008°00'1 1.2
2014-Sep-08 19:31N 36°51' W 007°59'3 2.9
2014-Sep-08 18:20N 36°51' W 008°03'3 2.5
2014-Sep-08 17:14N 36°50' W 008°06'1 2.0
2014-Sep-08 16:31N 36°51' W 008°05'3 2.9
2014-Sep-08 15:33N 36°51' W 008°01'3 3.1
2014-Sep-08 14:27N 36°52' W 007°57'7 1.4
2014-Sep-08 09:32N 36°53' W 008°06'3 2.7
2014-Sep-08 08:21N 36°51' W 008°03'3 3.1
2014-Sep-08 07:30N 36°51' W 007°60'7 2.3
2014-Sep-08 04:14N 36°56' W 008°07'7 9.6
2014-Sep-08 03:33N 36°59' W 008°14'10 9.7
2014-Sep-08 02:33N 37°03' W 008°25'7 6.1
2014-Sep-08 01:25N 37°08' W 008°32'0 0.0
2014-Sep-08 00:25N 37°08' W 008°32'0 0.0
2014-Sep-07 23:33N 37°08' W 008°32'0 0.0
2014-Sep-07 21:33N 37°08' W 008°32'0 0.0
2014-Sep-07 20:33N 37°08' W 008°32'0 0.0
2014-Sep-07 19:33N 37°08' W 008°32'9 8.9
2014-Sep-07 18:33N 36°59' W 008°31'8 7.6
2014-Sep-07 17:34N 36°52' W 008°31'2 2.5
2014-Sep-07 16:33N 36°49' W 008°31'3 3.0
2014-Sep-07 15:33N 36°49' W 008°27'1 0.7
2014-Sep-07 13:34N 36°49' W 008°29'1 1.1
2014-Sep-07 12:34N 36°49' W 008°30'3 2.9
2014-Sep-07 11:33N 36°49' W 008°27'3 2.9
2014-Sep-07 10:34N 36°49' W 008°23'2 1.8
2014-Sep-07 09:33N 36°50' W 008°21'3 3.0
2014-Sep-07 08:32N 36°49' W 008°17'3 3.0
2014-Sep-07 07:33N 36°49' W 008°14'3 2.9
2014-Sep-07 06:33N 36°49' W 008°10'5 1.9
2014-Sep-07 04:04N 36°50' W 008°15'1 2.8
2014-Sep-07 03:33N 36°50' W 008°17'0 0.4
2014-Sep-07 02:31N 36°50' W 008°17'2 0.9
2014-Sep-07 00:33N 36°51' W 008°19'3 2.9
2014-Sep-06 23:33N 36°51' W 008°22'3 2.9
2014-Sep-06 22:33N 36°52' W 008°26'3 2.9
2014-Sep-06 21:33N 36°53' W 008°29'9 9.1
2014-Sep-06 20:33N 36°52' W 008°41'6 0.3
2014-Sep-05 20:18N 36°48' W 008°46'5 2.6
2014-Sep-05 18:22N 36°52' W 008°44'2 2.7
2014-Sep-05 17:33N 36°51' W 008°43'3 2.9
2014-Sep-05 16:32N 36°50' W 008°39'3 3.0
2014-Sep-05 15:33N 36°49' W 008°36'2 2.2
2014-Sep-05 14:31N 36°51' W 008°34'3 3.1
2014-Sep-05 13:33N 36°52' W 008°30'3 2.9
2014-Sep-05 12:33N 36°49' W 008°32'3 2.7
2014-Sep-05 11:31N 36°50' W 008°28'3 3.0
2014-Sep-05 10:34N 36°50' W 008°25'1 1.1
2014-Sep-05 09:33N 36°50' W 008°23'3 2.9
2014-Sep-05 08:33N 36°49' W 008°20'3 3.0
2014-Sep-05 07:30N 36°49' W 008°16'3 3.1
2014-Sep-05 06:33N 36°49' W 008°12'3 2.7
2014-Sep-05 05:22N 36°49' W 008°08'8 0.8
2014-Sep-04 19:16N 36°52' W 007°58'3 3.0
2014-Sep-04 18:08N 36°51' W 008°02'2 2.7
2014-Sep-04 17:18N 36°52' W 008°05'0 0.4
2014-Sep-04 16:33N 36°52' W 008°05'2 2.5
2014-Sep-04 15:34N 36°51' W 008°02'3 3.0
2014-Sep-04 14:33N 36°52' W 007°58'2 1.7
2014-Sep-04 13:30N 36°52' W 007°56'6 3.0
2014-Sep-04 11:33N 36°53' W 008°03'4 3.1
2014-Sep-04 10:23N 36°53' W 008°08'2 2.6
2014-Sep-04 09:33N 36°53' W 008°05'3 3.1
2014-Sep-04 08:33N 36°53' W 008°01'3 3.1
2014-Sep-04 07:33N 36°52' W 007°58'7 1.8
2014-Sep-04 03:33N 36°46' W 007°54'4 1.7
2014-Sep-04 01:10N 36°45' W 007°59'2 3.0
2014-Sep-04 00:33N 36°45' W 007°57'3 2.9
2014-Sep-03 23:24N 36°46' W 007°53'5 0.5
2014-Sep-03 13:17N 36°52' W 007°54'8 2.5
2014-Sep-03 10:05N 36°52' W 008°04'2 3.3
2014-Sep-03 09:33N 36°53' W 008°05'2 2.2
2014-Sep-03 08:32N 36°51' W 008°04'3 2.9
2014-Sep-03 07:32N 36°51' W 008°00'3 3.0
2014-Sep-03 06:34N 36°52' W 007°57'7 3.1
2014-Sep-03 04:19N 36°56' W 008°04'7 9.7
2014-Sep-03 03:33N 36°59' W 008°12'10 9.7
2014-Sep-03 02:33N 37°03' W 008°23'8 7.8
2014-Sep-03 01:32N 37°08' W 008°32'0 0.0
2014-Sep-03 00:31N 37°08' W 008°32'0 0.0
2014-Sep-02 22:10N 37°08' W 008°32'0 0.0
2014-Sep-02 21:30N 37°08' W 008°32'0 0.0
2014-Sep-02 20:33N 37°08' W 008°32'8 8.1
2014-Sep-02 19:34N 37°00' W 008°31'9 8.5
2014-Sep-02 18:31N 36°51' W 008°31'2 2.0
2014-Sep-02 17:34N 36°49' W 008°30'3 2.9
2014-Sep-02 16:32N 36°50' W 008°26'3 2.9
2014-Sep-02 15:28N 36°49' W 008°23'1 0.9
2014-Sep-02 14:33N 36°49' W 008°22'3 3.1
2014-Sep-02 13:34N 36°49' W 008°18'3 3.0
2014-Sep-02 12:33N 36°49' W 008°14'3 2.9
2014-Sep-02 11:33N 36°49' W 008°10'3 2.4
2014-Sep-02 10:29N 36°50' W 008°07'3 0.1
2014-Sep-01 14:27N 36°52' W 008°05'2 2.2
2014-Sep-01 13:25N 36°51' W 008°03'3 3.0
2014-Sep-01 12:30N 36°51' W 007°60'3 2.8
2014-Sep-01 11:20N 36°52' W 007°56'3 0.7
2014-Sep-01 07:24N 36°51' W 007°59'3 0.2
2014-Aug-31 18:32N 36°51' W 007°56'3 2.2
2014-Aug-31 17:20N 36°50' W 007°59'2 3.0
2014-Aug-31 16:31N 36°50' W 008°02'3 2.2
2014-Aug-31 15:20N 36°51' W 007°59'2 3.0
2014-Aug-31 14:33N 36°52' W 007°56'3 2.0
2014-Aug-31 13:16N 36°52' W 007°53'3 2.1
2014-Aug-31 12:05N 36°52' W 007°56'2 2.9
2014-Aug-31 11:33N 36°52' W 007°58'3 3.0
2014-Aug-31 10:33N 36°51' W 008°01'2 1.2
2014-Aug-31 08:30N 36°51' W 008°04'3 2.7
2014-Aug-31 07:33N 36°51' W 008°01'3 3.1
2014-Aug-31 06:33N 36°52' W 007°58'8 2.1
2014-Aug-31 02:34N 36°44' W 007°53'3 2.9
2014-Aug-31 01:34N 36°44' W 007°57'3 3.3
2014-Aug-31 00:33N 36°45' W 008°01'3 3.0
2014-Aug-30 23:33N 36°46' W 007°57'3 2.9
2014-Aug-30 22:33N 36°47' W 007°54'  

Dump ship's entire track history